Time;durP1;ratioP1;P1;durP2;ratioP2;P2;SDS_P1;SDS_P2;PMS_P1;PMS_P2;Temp;Humidity;BMP_temperature;BMP_pressure;BME280_temperature;BME280_humidity;BME280_pressure;Samples;Min_cycle;Max_cycle;Signal;HPM_P1;HPM_P2
2023/12/09 00:01:47;;;;;;;1.50;1.40;;;;;4.80;95694.00;;;;5077032;28;20215;-61
2023/12/09 00:04:15;;;;;;;5.87;1.57;;;;;4.90;95698.00;;;;5077351;28;20210;-61
2023/12/09 00:06:47;;;;;;;1.13;1.10;;;;;4.90;95695.00;;;;5078505;28;20591;-61
2023/12/09 00:09:15;;;;;;;1.20;1.20;;;;;4.90;95707.00;;;;5077548;28;20186;-61
2023/12/09 00:11:43;;;;;;;1.10;1.10;;;;;4.80;95719.00;;;;5075868;28;20577;-61
2023/12/09 00:14:12;;;;;;;1.70;1.60;;;;;4.80;95719.00;;;;5076218;28;20591;-61
2023/12/09 00:16:40;;;;;;;1.30;1.20;;;;;4.70;95709.00;;;;5075896;28;20215;-61
2023/12/09 00:19:09;;;;;;;2.20;1.67;;;;;4.70;95716.00;;;;5076288;28;20233;-61
2023/12/09 00:21:36;;;;;;;1.50;1.40;;;;;4.70;95720.00;;;;5075999;28;20670;-62
2023/12/09 00:24:04;;;;;;;1.70;1.60;;;;;4.60;95723.00;;;;5076065;28;20189;-62
2023/12/09 00:26:31;;;;;;;1.47;1.37;;;;;4.60;95717.00;;;;5076368;28;20191;-61
2023/12/09 00:28:59;;;;;;;1.40;1.30;;;;;4.70;95715.00;;;;5075880;28;20202;-62
2023/12/09 00:31:27;;;;;;;1.93;1.83;;;;;4.70;95716.00;;;;5076111;28;20278;-61
2023/12/09 00:33:55;;;;;;;0.93;0.93;;;;;4.70;95706.00;;;;5076076;28;20582;-62
2023/12/09 00:36:23;;;;;;;2.87;2.00;;;;;4.80;95706.00;;;;5075990;28;20681;-62
2023/12/09 00:38:50;;;;;;;1.20;1.20;;;;;4.80;95715.00;;;;5075643;28;20223;-61
2023/12/09 00:41:18;;;;;;;1.77;1.67;;;;;4.80;95711.00;;;;5075747;28;20213;-61
2023/12/09 00:43:45;;;;;;;1.07;1.07;;;;;4.70;95715.00;;;;5075526;28;20321;-61
2023/12/09 00:46:12;;;;;;;1.67;1.50;;;;;4.70;95728.00;;;;5075553;28;20199;-61
2023/12/09 00:48:41;;;;;;;1.03;1.03;;;;;4.70;95727.00;;;;5075545;28;20202;-61
2023/12/09 00:51:09;;;;;;;1.57;1.33;;;;;4.60;95730.00;;;;5075345;28;20202;-61
2023/12/09 00:53:36;;;;;;;1.43;1.43;;;;;4.50;95728.00;;;;5075316;28;20272;-61
2023/12/09 00:56:04;;;;;;;1.10;1.10;;;;;4.60;95727.00;;;;5075451;28;20194;-61
2023/12/09 00:58:31;;;;;;;1.37;1.27;;;;;4.60;95731.00;;;;5075616;28;20215;-62
2023/12/09 01:00:59;;;;;;;1.57;1.47;;;;;4.60;95737.00;;;;5075769;28;20207;-62
2023/12/09 01:03:26;;;;;;;1.40;1.30;;;;;4.60;95737.00;;;;5075052;28;20228;-62
2023/12/09 01:05:55;;;;;;;1.57;1.47;;;;;4.60;95742.00;;;;5056963;28;20210;-62
2023/12/09 01:08:23;;;;;;;0.90;0.90;;;;;4.60;95731.00;;;;5075337;28;20265;-62
2023/12/09 01:10:53;;;;;;;2.30;1.47;;;;;4.60;95740.00;;;;5075056;28;20198;-62
2023/12/09 01:13:20;;;;;;;1.77;1.67;;;;;4.60;95734.00;;;;5074817;28;20708;-62
2023/12/09 01:15:48;;;;;;;1.70;1.33;;;;;4.60;95741.00;;;;5075057;28;20196;-62
2023/12/09 01:18:16;;;;;;;1.83;1.53;;;;;4.60;95756.00;;;;5075136;28;20213;-62
2023/12/09 01:20:43;;;;;;;3.60;1.23;;;;;4.60;95748.00;;;;5074765;28;20192;-62
2023/12/09 01:23:15;;;;;;;1.20;1.20;;;;;4.60;95755.00;;;;5075121;28;20555;-62
2023/12/09 01:25:42;;;;;;;1.33;1.23;;;;;4.70;95745.00;;;;5074788;28;20551;-62
2023/12/09 01:28:09;;;;;;;0.97;0.97;;;;;4.70;95756.00;;;;5074897;28;20184;-62
2023/12/09 01:30:37;;;;;;;1.00;1.00;;;;;4.70;95748.00;;;;5074624;28;20199;-62
2023/12/09 01:33:04;;;;;;;1.30;1.30;;;;;4.70;95768.00;;;;5074381;28;20226;-62
2023/12/09 01:35:32;;;;;;;0.90;0.90;;;;;4.70;95756.00;;;;5074537;28;20205;-62
2023/12/09 01:37:59;;;;;;;1.43;1.40;;;;;4.70;95769.00;;;;5074296;28;20222;-62
2023/12/09 01:40:28;;;;;;;1.10;1.10;;;;;4.70;95771.00;;;;5074390;28;20203;-62
2023/12/09 01:42:55;;;;;;;2.07;1.97;;;;;4.70;95764.00;;;;5074346;28;20217;-62
2023/12/09 01:45:23;;;;;;;1.40;1.30;;;;;4.70;95764.00;;;;5074275;28;20270;-62
2023/12/09 01:47:50;;;;;;;1.10;1.10;;;;;4.70;95779.00;;;;5074080;28;20568;-62
2023/12/09 01:50:18;;;;;;;0.97;0.97;;;;;4.80;95795.00;;;;5073553;28;20215;-62
2023/12/09 01:52:46;;;;;;;1.47;1.37;;;;;4.80;95790.00;;;;5074050;28;20215;-62
2023/12/09 01:55:14;;;;;;;1.33;1.33;;;;;4.80;95794.00;;;;5073982;28;20666;-62
2023/12/09 01:57:43;;;;;;;3.80;1.83;;;;;4.70;95797.00;;;;5073909;28;20210;-62
2023/12/09 02:00:13;;;;;;;1.17;1.17;;;;;4.70;95808.00;;;;5055923;28;20246;-62
2023/12/09 02:02:40;;;;;;;0.90;0.90;;;;;4.70;95797.00;;;;5074003;28;20713;-62
2023/12/09 02:05:08;;;;;;;0.70;0.70;;;;;4.90;95792.00;;;;5073882;28;20191;-62
2023/12/09 02:07:38;;;;;;;1.57;1.47;;;;;4.80;95795.00;;;;5073937;28;20191;-62
2023/12/09 02:10:06;;;;;;;1.20;1.20;;;;;4.80;95789.00;;;;5073915;28;20202;-62
2023/12/09 02:12:39;;;;;;;1.10;1.10;;;;;4.70;95787.00;;;;5073892;28;20219;-62
2023/12/09 02:15:12;;;;;;;2.87;2.00;;;;;4.80;95776.00;;;;5073888;28;20187;-62
2023/12/09 02:17:46;;;;;;;0.83;0.83;;;;;4.80;95778.00;;;;5074193;28;20234;-62
2023/12/09 02:20:14;;;;;;;1.00;1.00;;;;;4.90;95786.00;;;;5074127;28;20593;-62
2023/12/09 02:22:42;;;;;;;1.40;1.40;;;;;4.90;95786.00;;;;5073741;28;20753;-62
2023/12/09 02:25:11;;;;;;;0.93;0.93;;;;;4.80;95779.00;;;;5073554;28;20199;-62
2023/12/09 02:27:44;;;;;;;0.90;0.90;;;;;4.70;95782.00;;;;5073492;28;20202;-62
2023/12/09 02:30:20;;;;;;;1.33;1.23;;;;;4.80;95772.00;;;;5073455;28;20188;-62
2023/12/09 02:32:50;;;;;;;1.27;1.27;;;;;4.90;95768.00;;;;5073693;28;20226;-62
2023/12/09 02:35:19;;;;;;;0.90;0.90;;;;;5.10;95758.00;;;;5073982;28;20193;-62
2023/12/09 02:37:49;;;;;;;1.63;1.53;;;;;5.00;95751.00;;;;5073792;28;20215;-62
2023/12/09 02:40:18;;;;;;;1.23;1.13;;;;;4.90;95759.00;;;;5073421;28;20199;-62
2023/12/09 02:42:49;;;;;;;1.73;1.37;;;;;4.90;95744.00;;;;5073205;28;20212;-62
2023/12/09 02:45:19;;;;;;;0.70;0.70;;;;;4.80;95738.00;;;;5073483;28;20180;-62
2023/12/09 02:47:47;;;;;;;0.80;0.80;;;;;4.80;95735.00;;;;5073357;28;20241;-62
2023/12/09 02:50:15;;;;;;;1.60;1.50;;;;;4.80;95720.00;;;;5073274;28;20219;-62
2023/12/09 02:52:43;;;;;;;1.33;1.23;;;;;4.80;95725.00;;;;5073256;28;20215;-62
2023/12/09 02:55:11;;;;;;;1.73;1.63;;;;;4.70;95715.00;;;;5073325;28;20190;-62
2023/12/09 02:57:40;;;;;;;0.80;0.80;;;;;4.70;95728.00;;;;5073495;28;20215;-62
2023/12/09 03:00:09;;;;;;;1.60;1.50;;;;;4.50;95730.00;;;;5073401;28;20587;-62
2023/12/09 03:02:37;;;;;;;1.40;1.30;;;;;4.50;95719.00;;;;5073286;28;20209;-62
2023/12/09 03:05:05;;;;;;;0.83;0.80;;;;;4.40;95715.00;;;;5073406;28;20196;-62
2023/12/09 03:07:32;;;;;;;0.77;0.77;;;;;4.50;95714.00;;;;5073389;28;20198;-62
2023/12/09 03:10:00;;;;;;;0.80;0.80;;;;;4.50;95716.00;;;;5055068;28;20680;-62
2023/12/09 03:12:27;;;;;;;0.83;0.83;;;;;4.40;95709.00;;;;5073014;28;20209;-62
2023/12/09 03:14:56;;;;;;;0.80;0.80;;;;;4.30;95716.00;;;;5073296;28;20543;-62
2023/12/09 03:17:23;;;;;;;1.00;1.00;;;;;4.20;95708.00;;;;5072861;28;20192;-62
2023/12/09 03:19:51;;;;;;;1.00;1.00;;;;;4.20;95701.00;;;;5072957;28;20276;-62
2023/12/09 03:22:18;;;;;;;0.97;0.97;;;;;4.30;95711.00;;;;5072715;28;20225;-62
2023/12/09 03:24:46;;;;;;;1.43;1.33;;;;;4.20;95720.00;;;;5073087;28;20198;-62
2023/12/09 03:27:13;;;;;;;1.43;1.33;;;;;4.10;95709.00;;;;5072981;28;20197;-62
2023/12/09 03:29:40;;;;;;;0.90;0.90;;;;;4.00;95706.00;;;;5054996;28;20314;-62
2023/12/09 03:32:09;;;;;;;1.00;1.00;;;;;4.00;95698.00;;;;5072871;28;20273;-62
2023/12/09 03:34:37;;;;;;;10.43;1.93;;;;;3.90;95688.00;;;;5073006;28;20674;-62
2023/12/09 03:37:04;;;;;;;0.90;0.90;;;;;3.90;95680.00;;;;5072952;28;20195;-62
2023/12/09 03:39:31;;;;;;;2.00;1.50;;;;;4.00;95683.00;;;;5072791;28;20555;-62
2023/12/09 03:41:59;;;;;;;1.43;1.33;;;;;3.80;95682.00;;;;5072668;28;20219;-62
2023/12/09 03:44:26;;;;;;;0.70;0.70;;;;;3.80;95684.00;;;;5072697;28;20195;-62
2023/12/09 03:46:54;;;;;;;3.80;2.20;;;;;3.80;95704.00;;;;5072681;28;20195;-62
2023/12/09 03:49:22;;;;;;;1.10;1.10;;;;;3.80;95699.00;;;;5072676;28;20198;-62
2023/12/09 03:51:50;;;;;;;0.83;0.83;;;;;3.70;95702.00;;;;5072771;28;20746;-62
2023/12/09 03:54:17;;;;;;;1.07;1.07;;;;;3.60;95720.00;;;;5072537;28;20188;-62
2023/12/09 03:56:45;;;;;;;0.93;0.93;;;;;3.60;95708.00;;;;5072561;28;20657;-62
2023/12/09 03:59:13;;;;;;;1.10;1.03;;;;;3.60;95702.00;;;;5072402;28;20325;-62
2023/12/09 04:01:48;;;;;;;1.23;1.23;;;;;3.60;95695.00;;;;5072531;28;20208;-62
2023/12/09 04:04:15;;;;;;;1.40;1.30;;;;;3.60;95698.00;;;;5072810;28;20186;-62
2023/12/09 04:06:44;;;;;;;1.23;1.23;;;;;3.60;95707.00;;;;5072795;28;20214;-62
2023/12/09 04:09:11;;;;;;;1.30;1.30;;;;;3.60;95717.00;;;;5072581;28;20184;-62
2023/12/09 04:11:39;;;;;;;1.00;1.00;;;;;3.60;95701.00;;;;5072860;28;20207;-62
2023/12/09 04:14:06;;;;;;;1.37;1.37;;;;;3.70;95705.00;;;;5073663;28;20655;-62
2023/12/09 04:16:33;;;;;;;1.50;1.40;;;;;3.70;95701.00;;;;5076080;28;20201;-62
2023/12/09 04:19:01;;;;;;;0.90;0.90;;;;;3.80;95695.00;;;;5075898;28;20574;-62
2023/12/09 04:21:28;;;;;;;1.57;1.47;;;;;3.70;95696.00;;;;5075776;28;20628;-62
2023/12/09 04:23:57;;;;;;;1.03;1.03;;;;;3.80;95704.00;;;;5076142;28;20176;-62
2023/12/09 04:26:25;;;;;;;1.07;1.07;;;;;3.80;95715.00;;;;5076075;28;20199;-62
2023/12/09 04:28:53;;;;;;;1.17;1.17;;;;;3.80;95718.00;;;;5075775;28;20227;-62
2023/12/09 04:31:20;;;;;;;2.00;1.47;;;;;3.80;95730.00;;;;5075873;28;20199;-62
2023/12/09 04:33:48;;;;;;;1.43;1.37;;;;;3.70;95714.00;;;;5075683;28;20195;-62
2023/12/09 04:36:15;;;;;;;0.90;0.90;;;;;3.70;95722.00;;;;5075682;28;20203;-62
2023/12/09 04:38:43;;;;;;;1.30;1.20;;;;;3.60;95720.00;;;;5075396;28;20686;-62
2023/12/09 04:41:11;;;;;;;1.13;1.13;;;;;3.70;95714.00;;;;5075791;28;20592;-61
2023/12/09 04:43:39;;;;;;;1.33;1.23;;;;;3.60;95723.00;;;;5075498;28;20192;-61
2023/12/09 04:46:06;;;;;;;2.10;1.30;;;;;3.40;95714.00;;;;5075897;28;20200;-61
2023/12/09 04:48:34;;;;;;;2.37;1.83;;;;;3.60;95707.00;;;;5075485;28;20660;-61
2023/12/09 04:51:01;;;;;;;1.87;1.77;;;;;3.70;95723.00;;;;5075256;28;20199;-61
2023/12/09 04:53:29;;;;;;;1.60;1.50;;;;;3.80;95704.00;;;;5075399;28;20332;-61
2023/12/09 04:55:56;;;;;;;1.73;1.63;;;;;3.80;95721.00;;;;5075973;28;20185;-61
2023/12/09 04:58:25;;;;;;;1.73;1.63;;;;;3.70;95715.00;;;;5075805;28;20211;-61
2023/12/09 05:00:53;;;;;;;1.53;1.43;;;;;3.70;95716.00;;;;5075711;28;20192;-62
2023/12/09 05:03:20;;;;;;;1.90;1.63;;;;;3.70;95719.00;;;;5075145;28;20233;-61
2023/12/09 05:05:48;;;;;;;1.77;1.67;;;;;3.80;95707.00;;;;5075662;28;20191;-62
2023/12/09 05:08:15;;;;;;;1.30;1.30;;;;;3.70;95708.00;;;;5075163;28;20196;-62
2023/12/09 05:10:43;;;;;;;1.67;1.57;;;;;3.90;95706.00;;;;5075395;28;20198;-62
2023/12/09 05:13:11;;;;;;;0.90;0.90;;;;;3.80;95709.00;;;;5075469;28;20220;-61
2023/12/09 05:15:40;;;;;;;1.30;1.27;;;;;3.70;95692.00;;;;5075083;28;20195;-61
2023/12/09 05:18:07;;;;;;;1.27;1.27;;;;;3.70;95684.00;;;;5075423;28;20190;-61
2023/12/09 05:20:35;;;;;;;0.90;0.90;;;;;3.70;95693.00;;;;5074828;28;20199;-62
2023/12/09 05:23:02;;;;;;;7.20;1.43;;;;;3.60;95698.00;;;;5074489;28;20216;-62
2023/12/09 05:25:30;;;;;;;1.70;1.10;;;;;3.50;95695.00;;;;5073863;28;20191;-62
2023/12/09 05:28:00;;;;;;;3.50;2.50;;;;;3.60;95688.00;;;;5074794;28;20256;-62
2023/12/09 05:30:28;;;;;;;2.37;2.17;;;;;3.70;95681.00;;;;5074590;28;20219;-62
2023/12/09 05:32:57;;;;;;;1.30;1.20;;;;;3.60;95681.00;;;;5056588;28;20215;-62
2023/12/09 05:35:24;;;;;;;1.40;1.30;;;;;3.60;95685.00;;;;5074687;28;20187;-62
2023/12/09 05:37:52;;;;;;;1.07;1.07;;;;;3.50;95669.00;;;;5074530;28;20188;-62
2023/12/09 05:40:19;;;;;;;1.30;1.20;;;;;3.50;95663.00;;;;5074353;28;20219;-62
2023/12/09 05:42:47;;;;;;;1.63;1.53;;;;;3.40;95663.00;;;;5074301;28;20217;-62
2023/12/09 05:45:14;;;;;;;1.23;1.23;;;;;3.40;95662.00;;;;5074159;28;20192;-62
2023/12/09 05:47:42;;;;;;;1.80;1.67;;;;;3.50;95666.00;;;;5074252;28;20199;-62
2023/12/09 05:50:11;;;;;;;1.20;1.10;;;;;3.50;95661.00;;;;5074222;28;20550;-60
2023/12/09 05:52:39;;;;;;;1.03;0.83;;;;;3.50;95656.00;;;;5074021;28;20765;-62
2023/12/09 05:55:07;;;;;;;0.67;0.67;;;;;3.50;95661.00;;;;5074891;28;20194;-61
2023/12/09 05:57:34;;;;;;;1.47;0.83;;;;;3.70;95669.00;;;;5074196;28;20194;-61
2023/12/09 06:00:03;;;;;;;3.50;1.97;;;;;3.60;95663.00;;;;5073911;28;20234;-61
2023/12/09 06:02:30;;;;;;;1.10;1.10;;;;;3.70;95661.00;;;;5073927;28;20218;-61
2023/12/09 06:04:58;;;;;;;2.60;2.10;;;;;3.60;95663.00;;;;5074387;28;20188;-61
2023/12/09 06:07:27;;;;;;;2.53;1.73;;;;;3.70;95664.00;;;;5074478;28;20191;-61
2023/12/09 06:09:54;;;;;;;0.97;0.97;;;;;3.70;95658.00;;;;5073867;28;20187;-62
2023/12/09 06:12:22;;;;;;;1.03;1.03;;;;;3.80;95666.00;;;;5073835;28;20222;-62
2023/12/09 06:14:49;;;;;;;1.80;1.70;;;;;3.80;95661.00;;;;5073893;28;20191;-62
2023/12/09 06:17:16;;;;;;;1.03;1.03;;;;;3.70;95657.00;;;;5073909;28;20531;-62
2023/12/09 06:19:44;;;;;;;1.63;1.33;;;;;3.70;95660.00;;;;5073738;28;20219;-62
2023/12/09 06:22:11;;;;;;;1.07;1.07;;;;;3.70;95652.00;;;;5073690;28;20233;-62
2023/12/09 06:24:40;;;;;;;1.23;1.23;;;;;3.70;95644.00;;;;5073722;28;20192;-62
2023/12/09 06:27:07;;;;;;;1.33;1.27;;;;;3.70;95648.00;;;;5055727;28;20203;-62
2023/12/09 06:29:35;;;;;;;2.10;1.53;;;;;3.70;95638.00;;;;5073658;28;20191;-62
2023/12/09 06:32:02;;;;;;;4.17;1.70;;;;;3.70;95641.00;;;;5073601;28;20299;-62
2023/12/09 06:34:30;;;;;;;1.37;1.37;;;;;3.70;95639.00;;;;5073641;28;20199;-62
2023/12/09 06:36:57;;;;;;;1.70;1.57;;;;;4.00;95646.00;;;;5055707;28;20545;-62
2023/12/09 06:39:25;;;;;;;0.90;0.80;;;;;3.80;95634.00;;;;5074153;28;20215;-62
2023/12/09 06:41:53;;;;;;;2.07;1.73;;;;;3.70;95627.00;;;;5073734;28;20237;-62
2023/12/09 06:44:21;;;;;;;2.30;2.10;;;;;3.70;95621.00;;;;5073836;28;20191;-62
2023/12/09 06:46:49;;;;;;;1.37;1.10;;;;;3.70;95624.00;;;;5073746;28;20200;-62
2023/12/09 06:49:18;;;;;;;1.70;1.43;;;;;3.70;95635.00;;;;5074133;28;20219;-62
2023/12/09 06:51:46;;;;;;;3.27;2.23;;;;;3.70;95642.00;;;;5073625;28;20266;-62
2023/12/09 06:54:14;;;;;;;1.70;1.57;;;;;3.80;95649.00;;;;5073507;28;20305;-62
2023/12/09 06:56:41;;;;;;;1.87;1.77;;;;;3.70;95645.00;;;;5073460;28;20195;-62
2023/12/09 06:59:10;;;;;;;1.63;1.53;;;;;3.60;95645.00;;;;5073457;28;20215;-62
2023/12/09 07:01:37;;;;;;;1.40;1.33;;;;;3.60;95630.00;;;;5073342;28;20218;-62
2023/12/09 07:04:05;;;;;;;1.27;1.20;;;;;3.60;95616.00;;;;5073164;28;20648;-62
2023/12/09 07:06:32;;;;;;;2.23;1.57;;;;;3.60;95626.00;;;;5073137;28;20214;-62
2023/12/09 07:09:03;;;;;;;0.80;0.80;;;;;3.70;95637.00;;;;5073723;28;20252;-62
2023/12/09 07:11:30;;;;;;;2.43;1.73;;;;;3.70;95635.00;;;;5073182;28;20260;-62
2023/12/09 07:13:58;;;;;;;1.73;1.63;;;;;3.70;95643.00;;;;5073641;28;20242;-62
2023/12/09 07:16:27;;;;;;;1.20;1.20;;;;;3.70;95636.00;;;;5073063;28;20187;-62
2023/12/09 07:18:59;;;;;;;2.17;1.97;;;;;3.60;95629.00;;;;5072821;28;20222;-62
2023/12/09 07:21:27;;;;;;;1.40;1.30;;;;;3.70;95633.00;;;;5072999;28;20179;-62
2023/12/09 07:23:55;;;;;;;0.97;0.97;;;;;3.80;95629.00;;;;5073345;28;20639;-62
2023/12/09 07:26:23;;;;;;;2.23;1.90;;;;;3.80;95623.00;;;;5073010;28;20219;-62
2023/12/09 07:28:50;;;;;;;0.90;0.90;;;;;3.80;95621.00;;;;5073324;28;20188;-62
2023/12/09 07:31:18;;;;;;;1.13;1.13;;;;;3.80;95627.00;;;;5072940;28;20199;-62
2023/12/09 07:33:47;;;;;;;1.60;1.53;;;;;3.90;95636.00;;;;5072929;28;20196;-62
2023/12/09 07:36:14;;;;;;;1.73;1.63;;;;;3.90;95642.00;;;;5073489;28;20193;-62
2023/12/09 07:38:41;;;;;;;0.80;0.80;;;;;4.00;95641.00;;;;5072829;28;20199;-62
2023/12/09 07:41:09;;;;;;;1.73;1.63;;;;;3.80;95634.00;;;;5054786;28;20202;-62
2023/12/09 07:43:36;;;;;;;1.80;1.70;;;;;3.70;95626.00;;;;5072996;28;20191;-62
2023/12/09 07:46:04;;;;;;;1.30;1.20;;;;;3.90;95642.00;;;;5072778;28;20573;-62
2023/12/09 07:48:31;;;;;;;2.20;1.77;;;;;4.10;95637.00;;;;5073356;28;20195;-62
2023/12/09 07:51:00;;;;;;;1.63;1.53;;;;;4.20;95643.00;;;;5076966;28;20214;-62
2023/12/09 07:53:28;;;;;;;1.33;1.33;;;;;4.10;95636.00;;;;5058536;28;20219;-62
2023/12/09 07:55:57;;;;;;;0.60;0.60;;;;;4.10;95634.00;;;;5076293;28;20195;-62
2023/12/09 07:58:24;;;;;;;0.70;0.70;;;;;4.10;95636.00;;;;5076913;28;20200;-62
2023/12/09 08:00:52;;;;;;;0.80;0.80;;;;;4.10;95634.00;;;;5076371;28;20257;-62
2023/12/09 08:03:20;;;;;;;0.90;0.90;;;;;4.10;95616.00;;;;5076265;28;20218;-62
2023/12/09 08:05:47;;;;;;;0.77;0.77;;;;;4.10;95613.00;;;;5076732;28;20198;-62
2023/12/09 08:08:16;;;;;;;1.13;1.13;;;;;4.10;95608.00;;;;5076454;28;20566;-62
2023/12/09 08:10:44;;;;;;;1.53;1.43;;;;;4.20;95610.00;;;;5076681;28;20190;-62
2023/12/09 08:13:13;;;;;;;1.93;1.83;;;;;4.10;95625.00;;;;5076034;28;20207;-62
2023/12/09 08:15:41;;;;;;;3.03;1.47;;;;;4.00;95632.00;;;;5076138;28;20191;-62
2023/12/09 08:18:08;;;;;;;1.13;1.00;;;;;4.00;95630.00;;;;5075889;28;20193;-62
2023/12/09 08:20:36;;;;;;;0.70;0.70;;;;;3.90;95631.00;;;;5075747;28;20242;-62
2023/12/09 08:23:03;;;;;;;1.00;1.00;;;;;3.90;95627.00;;;;5075591;28;20225;-62
2023/12/09 08:25:32;;;;;;;1.23;1.13;;;;;4.10;95614.00;;;;5076060;28;20594;-62
2023/12/09 08:28:00;;;;;;;2.50;1.77;;;;;4.30;95611.00;;;;5075817;28;20245;-62
2023/12/09 08:30:27;;;;;;;1.07;1.07;;;;;4.40;95608.00;;;;5058462;28;20512;-62
2023/12/09 08:32:55;;;;;;;1.13;1.10;;;;;4.40;95611.00;;;;5075744;28;20222;-62
2023/12/09 08:35:22;;;;;;;1.00;1.00;;;;;4.70;95614.00;;;;5075566;28;20203;-62
2023/12/09 08:37:49;;;;;;;0.80;0.80;;;;;4.60;95612.00;;;;5075669;28;20200;-62
2023/12/09 08:40:17;;;;;;;0.97;0.97;;;;;4.40;95600.00;;;;5075737;28;20243;-62
2023/12/09 08:42:46;;;;;;;0.80;0.80;;;;;4.50;95599.00;;;;5075632;28;20211;-62
2023/12/09 08:45:16;;;;;;;2.63;1.83;;;;;4.30;95605.00;;;;5076165;28;20279;-62
2023/12/09 08:47:43;;;;;;;1.67;1.57;;;;;4.50;95611.00;;;;5075414;28;20647;-62
2023/12/09 08:50:11;;;;;;;0.83;0.83;;;;;4.60;95617.00;;;;5075385;28;20200;-62
2023/12/09 08:52:39;;;;;;;1.33;1.33;;;;;4.70;95605.00;;;;5075166;28;20215;-62
2023/12/09 08:55:10;;;;;;;0.70;0.70;;;;;4.80;95603.00;;;;5075211;28;20195;-62
2023/12/09 08:57:38;;;;;;;1.30;1.30;;;;;4.90;95602.00;;;;5075426;28;20238;-62
2023/12/09 09:00:08;;;;;;;0.73;0.73;;;;;4.90;95591.00;;;;5075023;28;20310;-62
2023/12/09 09:02:36;;;;;;;1.13;1.13;;;;;5.00;95579.00;;;;5075387;28;20215;-62
2023/12/09 09:05:04;;;;;;;0.93;0.93;;;;;5.00;95577.00;;;;5075057;28;20609;-63
2023/12/09 09:07:36;;;;;;;0.80;0.80;;;;;4.80;95568.00;;;;5074952;28;20194;-62
2023/12/09 09:10:04;;;;;;;1.27;1.20;;;;;5.00;95561.00;;;;5075219;28;20176;-62
2023/12/09 09:12:31;;;;;;;0.80;0.80;;;;;5.10;95568.00;;;;5074728;28;20684;-62
2023/12/09 09:14:59;;;;;;;4.43;1.70;;;;;5.30;95578.00;;;;5075072;28;20188;-62
2023/12/09 09:17:28;;;;;;;0.93;0.93;;;;;5.10;95571.00;;;;5074702;28;20220;-61
2023/12/09 09:19:56;;;;;;;1.30;1.30;;;;;5.20;95576.00;;;;5074607;28;20218;-61
2023/12/09 09:22:23;;;;;;;1.07;1.07;;;;;5.00;95571.00;;;;5074645;28;20219;-61
2023/12/09 09:24:51;;;;;;;0.60;0.60;;;;;5.20;95572.00;;;;5074571;28;20205;-61
2023/12/09 09:27:19;;;;;;;1.13;1.03;;;;;5.40;95571.00;;;;5074554;28;20188;-62
2023/12/09 09:29:46;;;;;;;1.00;1.00;;;;;5.40;95559.00;;;;5074483;28;20188;-62
2023/12/09 09:32:14;;;;;;;1.40;0.90;;;;;5.40;95552.00;;;;5074590;28;20211;-62
2023/12/09 09:34:44;;;;;;;1.00;1.00;;;;;5.50;95547.00;;;;5074674;28;20227;-62
2023/12/09 09:37:11;;;;;;;1.90;1.80;;;;;5.60;95540.00;;;;5074514;28;20192;-62
2023/12/09 09:39:39;;;;;;;1.00;1.00;;;;;5.70;95548.00;;;;5074385;28;20225;-62
2023/12/09 09:42:19;;;;;;;0.97;0.97;;;;;5.80;95536.00;;;;5074299;28;20207;-62
2023/12/09 09:44:55;;;;;;;0.90;0.90;;;;;5.60;95529.00;;;;5074847;28;20182;-62
2023/12/09 09:47:23;;;;;;;0.97;0.93;;;;;5.70;95532.00;;;;5074101;28;20194;-62
2023/12/09 09:49:52;;;;;;;1.70;1.03;;;;;5.80;95538.00;;;;5074240;28;20241;-62
2023/12/09 09:52:23;;;;;;;0.77;0.77;;;;;5.90;95533.00;;;;5074000;28;20223;-62
2023/12/09 09:54:51;;;;;;;1.07;1.00;;;;;6.10;95515.00;;;;5074448;28;20187;-62
2023/12/09 09:57:20;;;;;;;1.33;1.23;;;;;6.10;95513.00;;;;5074034;28;20609;-62
2023/12/09 09:59:48;;;;;;;0.77;0.77;;;;;6.00;95504.00;;;;5074206;28;20255;-62
2023/12/09 10:02:20;;;;;;;1.30;1.30;;;;;6.00;95505.00;;;;5073891;28;20218;-62
2023/12/09 10:04:48;;;;;;;0.50;0.50;;;;;6.00;95511.00;;;;5073678;28;20176;-62
2023/12/09 10:07:17;;;;;;;0.87;0.87;;;;;6.10;95512.00;;;;5073900;28;20191;-62
2023/12/09 10:09:44;;;;;;;0.77;0.77;;;;;6.10;95501.00;;;;5074067;28;20669;-62
2023/12/09 10:12:12;;;;;;;0.93;0.93;;;;;6.10;95504.00;;;;5073395;28;20211;-62
2023/12/09 10:14:40;;;;;;;0.60;0.60;;;;;6.00;95494.00;;;;5074203;28;20187;-62
2023/12/09 10:17:07;;;;;;;1.07;1.07;;;;;6.00;95463.00;;;;5073871;28;20287;-62
2023/12/09 10:19:36;;;;;;;0.80;0.80;;;;;6.20;95434.00;;;;5073931;28;20277;-62
2023/12/09 10:22:04;;;;;;;0.83;0.80;;;;;6.30;95445.00;;;;5073724;28;20741;-62
2023/12/09 10:24:32;;;;;;;0.50;0.50;;;;;6.30;95450.00;;;;5073922;28;20187;-62
2023/12/09 10:27:00;;;;;;;0.63;0.63;;;;;6.40;95445.00;;;;5073729;28;20195;-62
2023/12/09 10:29:27;;;;;;;2.37;1.30;;;;;6.50;95439.00;;;;5073812;28;20591;-62
2023/12/09 10:31:55;;;;;;;0.50;0.50;;;;;6.50;95434.00;;;;5073586;28;20214;-62
2023/12/09 10:34:22;;;;;;;0.77;0.77;;;;;6.50;95424.00;;;;5074164;28;20658;-62
2023/12/09 10:36:50;;;;;;;0.80;0.80;;;;;6.30;95431.00;;;;5074079;28;20535;-62
2023/12/09 10:39:19;;;;;;;0.80;0.80;;;;;6.40;95417.00;;;;5055642;28;20195;-62
2023/12/09 10:41:48;;;;;;;0.53;0.53;;;;;6.40;95424.00;;;;5073103;28;20657;-62
2023/12/09 10:44:17;;;;;;;1.03;1.03;;;;;6.40;95419.00;;;;5073841;28;20646;-62
2023/12/09 10:46:45;;;;;;;0.90;0.90;;;;;6.30;95411.00;;;;5073412;28;20226;-62
2023/12/09 10:49:12;;;;;;;1.33;1.10;;;;;6.40;95412.00;;;;5073293;28;20201;-62
2023/12/09 10:51:40;;;;;;;0.70;0.70;;;;;6.40;95415.00;;;;5073076;28;20213;-62
2023/12/09 10:54:07;;;;;;;0.73;0.73;;;;;6.30;95408.00;;;;5073508;28;20206;-62
2023/12/09 10:56:35;;;;;;;0.70;0.70;;;;;6.40;95396.00;;;;5073274;28;20226;-62
2023/12/09 10:59:07;;;;;;;1.13;1.03;;;;;6.30;95400.00;;;;5073402;28;20179;-62
2023/12/09 11:01:35;;;;;;;0.70;0.70;;;;;6.40;95401.00;;;;5073602;28;20217;-62
2023/12/09 11:04:04;;;;;;;0.67;0.67;;;;;6.50;95386.00;;;;5073241;28;20207;-62
2023/12/09 11:06:35;;;;;;;0.60;0.60;;;;;6.60;95383.00;;;;5073656;28;20205;-62
2023/12/09 11:09:05;;;;;;;0.77;0.73;;;;;6.30;95366.00;;;;5073370;28;20194;-62
2023/12/09 11:11:33;;;;;;;0.93;0.93;;;;;6.20;95352.00;;;;5073306;28;20264;-62
2023/12/09 11:14:00;;;;;;;1.03;0.93;;;;;6.10;95342.00;;;;5073543;28;20196;-62
2023/12/09 11:16:30;;;;;;;1.13;1.13;;;;;6.20;95345.00;;;;5073527;28;20206;-62
2023/12/09 11:18:58;;;;;;;2.47;2.07;;;;;6.10;95338.00;;;;5072982;28;20198;-62
2023/12/09 11:21:29;;;;;;;0.77;0.77;;;;;6.10;95323.00;;;;5073022;28;20237;-62
2023/12/09 11:23:58;;;;;;;1.67;1.30;;;;;6.10;95314.00;;;;5076686;28;20274;-62
2023/12/09 11:26:30;;;;;;;0.60;0.60;;;;;6.00;95304.00;;;;5077045;28;20647;-62
2023/12/09 11:28:59;;;;;;;1.60;1.50;;;;;6.10;95308.00;;;;5077019;28;20252;-62
2023/12/09 11:31:36;;;;;;;0.77;0.77;;;;;6.10;95293.00;;;;5077396;28;20256;-62
2023/12/09 11:34:05;;;;;;;3.00;1.77;;;;;6.20;95280.00;;;;5076797;28;20178;-62
2023/12/09 11:36:35;;;;;;;1.60;1.50;;;;;6.20;95274.00;;;;5077058;28;20197;-61
2023/12/09 11:39:06;;;;;;;0.90;0.90;;;;;6.20;95267.00;;;;5077239;28;20241;-61
2023/12/09 11:41:34;;;;;;;1.03;1.03;;;;;6.30;95262.00;;;;5076737;28;20253;-61
2023/12/09 11:44:03;;;;;;;1.03;1.00;;;;;6.20;95271.00;;;;5076578;28;20192;-61
2023/12/09 11:46:31;;;;;;;2.03;1.83;;;;;5.80;95254.00;;;;5076879;28;20199;-61
2023/12/09 11:49:01;;;;;;;2.10;2.00;;;;;5.90;95253.00;;;;5076735;28;20188;-61
2023/12/09 11:51:29;;;;;;;1.57;1.47;;;;;5.80;95263.00;;;;5076743;28;20198;-61
2023/12/09 11:53:58;;;;;;;1.43;1.40;;;;;5.80;95252.00;;;;5076481;28;20205;-61
2023/12/09 11:56:26;;;;;;;1.20;1.20;;;;;6.00;95245.00;;;;5058232;28;20340;-62
2023/12/09 11:58:54;;;;;;;0.87;0.87;;;;;6.10;95239.00;;;;5076373;28;20550;-61
2023/12/09 12:01:22;;;;;;;2.07;1.70;;;;;6.00;95231.00;;;;5075976;28;20234;-61
2023/12/09 12:03:50;;;;;;;0.97;0.97;;;;;6.00;95229.00;;;;5076286;28;20688;-61
2023/12/09 12:06:21;;;;;;;0.93;0.93;;;;;6.00;95212.00;;;;5076607;28;20317;-61
2023/12/09 12:08:49;;;;;;;0.70;0.70;;;;;6.10;95196.00;;;;5076698;28;20623;-62
2023/12/09 12:11:16;;;;;;;1.50;1.40;;;;;6.20;95208.00;;;;5075835;28;20202;-62
2023/12/09 12:13:44;;;;;;;0.70;0.70;;;;;6.30;95222.00;;;;5075784;28;20195;-61
2023/12/09 12:16:12;;;;;;;0.70;0.70;;;;;6.90;95197.00;;;;5076118;28;20599;-61
2023/12/09 12:18:39;;;;;;;2.80;1.83;;;;;8.20;95187.00;;;;5075860;28;20198;-61
2023/12/09 12:21:07;;;;;;;1.77;1.67;;;;;7.80;95190.00;;;;5075785;28;20232;-61
2023/12/09 12:23:36;;;;;;;3.20;2.30;;;;;8.10;95174.00;;;;5075751;28;20674;-62
2023/12/09 12:26:04;;;;;;;0.77;0.77;;;;;7.70;95186.00;;;;5076259;28;20191;-61
2023/12/09 12:28:31;;;;;;;0.70;0.70;;;;;7.60;95168.00;;;;5075681;28;20198;-61
2023/12/09 12:31:00;;;;;;;1.13;1.13;;;;;7.60;95162.00;;;;5075832;28;20183;-61